sensor_id;sensor_type;location;lat;lon;timestamp;P1;durP1;ratioP1;P2;durP2;ratioP2
22425;SDS011;11380;50.822;15.790;2023-03-04T00:04:09;48.10;;;43.50;;
22425;SDS011;11380;50.822;15.790;2023-03-04T00:09:17;49.20;;;44.38;;
22425;SDS011;11380;50.822;15.790;2023-03-04T00:14:24;50.10;;;45.40;;
22425;SDS011;11380;50.822;15.790;2023-03-04T00:19:33;50.63;;;45.83;;
22425;SDS011;11380;50.822;15.790;2023-03-04T00:24:41;52.43;;;47.00;;
22425;SDS011;11380;50.822;15.790;2023-03-04T00:29:51;49.50;;;44.60;;
22425;SDS011;11380;50.822;15.790;2023-03-04T00:34:58;47.53;;;43.37;;
22425;SDS011;11380;50.822;15.790;2023-03-04T00:40:06;48.57;;;44.30;;
22425;SDS011;11380;50.822;15.790;2023-03-04T00:45:14;46.77;;;42.90;;
22425;SDS011;11380;50.822;15.790;2023-03-04T00:50:23;49.13;;;44.45;;
22425;SDS011;11380;50.822;15.790;2023-03-04T00:55:30;48.38;;;43.78;;
22425;SDS011;11380;50.822;15.790;2023-03-04T01:00:37;47.55;;;43.13;;
22425;SDS011;11380;50.822;15.790;2023-03-04T01:05:44;48.33;;;43.63;;
22425;SDS011;11380;50.822;15.790;2023-03-04T01:10:51;47.70;;;43.53;;
22425;SDS011;11380;50.822;15.790;2023-03-04T01:15:59;48.57;;;44.10;;
22425;SDS011;11380;50.822;15.790;2023-03-04T01:21:07;46.63;;;42.27;;
22425;SDS011;11380;50.822;15.790;2023-03-04T01:26:14;45.77;;;42.23;;
22425;SDS011;11380;50.822;15.790;2023-03-04T01:31:22;46.97;;;42.47;;
22425;SDS011;11380;50.822;15.790;2023-03-04T01:36:30;48.90;;;44.40;;
22425;SDS011;11380;50.822;15.790;2023-03-04T01:41:38;47.50;;;43.37;;
22425;SDS011;11380;50.822;15.790;2023-03-04T01:46:47;46.50;;;42.50;;
22425;SDS011;11380;50.822;15.790;2023-03-04T01:51:58;47.23;;;42.67;;
22425;SDS011;11380;50.822;15.790;2023-03-04T01:57:19;48.23;;;43.80;;
22425;SDS011;11380;50.822;15.790;2023-03-04T02:02:25;45.63;;;41.95;;
22425;SDS011;11380;50.822;15.790;2023-03-04T02:07:35;47.13;;;42.98;;
22425;SDS011;11380;50.822;15.790;2023-03-04T02:12:42;47.20;;;43.10;;
22425;SDS011;11380;50.822;15.790;2023-03-04T02:17:50;44.67;;;41.17;;
22425;SDS011;11380;50.822;15.790;2023-03-04T02:23:04;45.30;;;41.80;;
22425;SDS011;11380;50.822;15.790;2023-03-04T02:28:15;44.77;;;41.10;;
22425;SDS011;11380;50.822;15.790;2023-03-04T02:33:23;42.30;;;39.35;;
22425;SDS011;11380;50.822;15.790;2023-03-04T02:38:30;44.60;;;41.05;;
22425;SDS011;11380;50.822;15.790;2023-03-04T02:43:39;43.83;;;40.27;;
22425;SDS011;11380;50.822;15.790;2023-03-04T02:48:46;43.98;;;40.67;;
22425;SDS011;11380;50.822;15.790;2023-03-04T02:53:55;43.13;;;39.73;;
22425;SDS011;11380;50.822;15.790;2023-03-04T02:59:03;42.00;;;39.03;;
22425;SDS011;11380;50.822;15.790;2023-03-04T03:04:10;43.37;;;39.70;;
22425;SDS011;11380;50.822;15.790;2023-03-04T03:09:19;43.17;;;39.75;;
22425;SDS011;11380;50.822;15.790;2023-03-04T03:14:26;43.67;;;40.37;;
22425;SDS011;11380;50.822;15.790;2023-03-04T03:19:34;42.67;;;39.37;;
22425;SDS011;11380;50.822;15.790;2023-03-04T03:24:41;42.07;;;39.03;;
22425;SDS011;11380;50.822;15.790;2023-03-04T03:29:49;43.10;;;39.83;;
22425;SDS011;11380;50.822;15.790;2023-03-04T03:34:56;43.63;;;40.23;;
22425;SDS011;11380;50.822;15.790;2023-03-04T03:40:04;43.23;;;39.73;;
22425;SDS011;11380;50.822;15.790;2023-03-04T03:45:13;41.30;;;38.40;;
22425;SDS011;11380;50.822;15.790;2023-03-04T03:50:20;49.00;;;39.40;;
22425;SDS011;11380;50.822;15.790;2023-03-04T03:55:28;43.20;;;39.90;;
22425;SDS011;11380;50.822;15.790;2023-03-04T04:00:38;44.33;;;40.52;;
22425;SDS011;11380;50.822;15.790;2023-03-04T04:05:45;41.70;;;38.70;;
22425;SDS011;11380;50.822;15.790;2023-03-04T04:10:55;41.60;;;38.67;;
22425;SDS011;11380;50.822;15.790;2023-03-04T04:16:03;42.87;;;39.77;;
22425;SDS011;11380;50.822;15.790;2023-03-04T04:21:11;42.03;;;39.03;;
22425;SDS011;11380;50.822;15.790;2023-03-04T04:26:18;40.93;;;38.20;;
22425;SDS011;11380;50.822;15.790;2023-03-04T04:31:26;43.70;;;40.13;;
22425;SDS011;11380;50.822;15.790;2023-03-04T04:36:33;42.73;;;39.47;;
22425;SDS011;11380;50.822;15.790;2023-03-04T04:41:41;42.97;;;39.60;;
22425;SDS011;11380;50.822;15.790;2023-03-04T04:46:50;42.30;;;38.97;;
22425;SDS011;11380;50.822;15.790;2023-03-04T04:51:58;42.50;;;39.40;;
22425;SDS011;11380;50.822;15.790;2023-03-04T04:57:05;42.93;;;39.63;;
22425;SDS011;11380;50.822;15.790;2023-03-04T05:02:14;43.72;;;40.18;;
22425;SDS011;11380;50.822;15.790;2023-03-04T05:07:22;43.93;;;40.37;;
22425;SDS011;11380;50.822;15.790;2023-03-04T05:12:29;41.97;;;38.70;;
22425;SDS011;11380;50.822;15.790;2023-03-04T05:17:38;42.27;;;39.27;;
22425;SDS011;11380;50.822;15.790;2023-03-04T05:22:46;42.37;;;39.10;;
22425;SDS011;11380;50.822;15.790;2023-03-04T05:27:53;39.47;;;36.90;;
22425;SDS011;11380;50.822;15.790;2023-03-04T05:33:00;41.33;;;38.30;;
22425;SDS011;11380;50.822;15.790;2023-03-04T05:38:08;40.43;;;37.73;;
22425;SDS011;11380;50.822;15.790;2023-03-04T05:43:18;40.58;;;37.83;;
22425;SDS011;11380;50.822;15.790;2023-03-04T05:48:26;41.07;;;37.83;;
22425;SDS011;11380;50.822;15.790;2023-03-04T05:53:34;41.07;;;38.10;;
22425;SDS011;11380;50.822;15.790;2023-03-04T05:58:42;40.90;;;37.93;;
22425;SDS011;11380;50.822;15.790;2023-03-04T06:03:52;41.33;;;38.33;;
22425;SDS011;11380;50.822;15.790;2023-03-04T06:09:00;42.73;;;39.47;;
22425;SDS011;11380;50.822;15.790;2023-03-04T06:14:07;42.67;;;39.57;;
22425;SDS011;11380;50.822;15.790;2023-03-04T06:19:15;47.30;;;43.00;;
22425;SDS011;11380;50.822;15.790;2023-03-04T06:24:23;48.92;;;44.33;;
22425;SDS011;11380;50.822;15.790;2023-03-04T06:29:32;44.63;;;40.83;;
22425;SDS011;11380;50.822;15.790;2023-03-04T06:34:40;49.53;;;44.70;;
22425;SDS011;11380;50.822;15.790;2023-03-04T06:39:47;47.53;;;43.30;;
22425;SDS011;11380;50.822;15.790;2023-03-04T06:44:56;52.87;;;47.40;;
22425;SDS011;11380;50.822;15.790;2023-03-04T06:50:04;45.17;;;41.73;;
22425;SDS011;11380;50.822;15.790;2023-03-04T06:55:14;47.13;;;42.85;;
22425;SDS011;11380;50.822;15.790;2023-03-04T07:00:22;46.77;;;42.77;;
22425;SDS011;11380;50.822;15.790;2023-03-04T07:05:29;46.05;;;42.25;;
22425;SDS011;11380;50.822;15.790;2023-03-04T07:10:36;45.83;;;41.90;;
22425;SDS011;11380;50.822;15.790;2023-03-04T07:15:44;45.67;;;42.10;;
22425;SDS011;11380;50.822;15.790;2023-03-04T07:20:51;44.43;;;41.17;;
22425;SDS011;11380;50.822;15.790;2023-03-04T07:25:58;43.27;;;40.37;;
22425;SDS011;11380;50.822;15.790;2023-03-04T07:31:12;44.03;;;40.90;;
22425;SDS011;11380;50.822;15.790;2023-03-04T07:36:19;45.97;;;42.57;;
22425;SDS011;11380;50.822;15.790;2023-03-04T07:41:33;42.90;;;39.93;;
22425;SDS011;11380;50.822;15.790;2023-03-04T07:46:42;44.03;;;41.03;;
22425;SDS011;11380;50.822;15.790;2023-03-04T07:51:49;42.83;;;40.03;;
22425;SDS011;11380;50.822;15.790;2023-03-04T07:56:56;43.33;;;40.47;;
22425;SDS011;11380;50.822;15.790;2023-03-04T08:02:04;42.17;;;39.30;;
22425;SDS011;11380;50.822;15.790;2023-03-04T08:07:13;42.73;;;40.03;;
22425;SDS011;11380;50.822;15.790;2023-03-04T08:12:20;43.07;;;40.27;;
22425;SDS011;11380;50.822;15.790;2023-03-04T08:17:28;43.47;;;40.53;;
22425;SDS011;11380;50.822;15.790;2023-03-04T08:22:36;43.10;;;40.17;;
22425;SDS011;11380;50.822;15.790;2023-03-04T08:27:43;43.33;;;40.43;;
22425;SDS011;11380;50.822;15.790;2023-03-04T08:32:51;44.20;;;41.23;;
22425;SDS011;11380;50.822;15.790;2023-03-04T08:37:58;44.30;;;41.30;;
22425;SDS011;11380;50.822;15.790;2023-03-04T08:43:05;43.53;;;40.53;;
22425;SDS011;11380;50.822;15.790;2023-03-04T08:48:16;43.60;;;40.70;;
22425;SDS011;11380;50.822;15.790;2023-03-04T08:53:24;44.38;;;41.37;;
22425;SDS011;11380;50.822;15.790;2023-03-04T08:58:31;43.35;;;40.45;;
22425;SDS011;11380;50.822;15.790;2023-03-04T09:03:38;44.00;;;41.10;;
22425;SDS011;11380;50.822;15.790;2023-03-04T09:08:46;44.37;;;41.40;;
22425;SDS011;11380;50.822;15.790;2023-03-04T09:13:54;44.50;;;41.50;;
22425;SDS011;11380;50.822;15.790;2023-03-04T09:19:02;44.30;;;41.37;;
22425;SDS011;11380;50.822;15.790;2023-03-04T09:24:09;44.77;;;41.67;;
22425;SDS011;11380;50.822;15.790;2023-03-04T09:29:17;44.67;;;41.68;;
22425;SDS011;11380;50.822;15.790;2023-03-04T09:34:25;44.65;;;41.58;;
22425;SDS011;11380;50.822;15.790;2023-03-04T09:39:32;44.87;;;41.77;;
22425;SDS011;11380;50.822;15.790;2023-03-04T09:44:40;44.63;;;41.63;;
22425;SDS011;11380;50.822;15.790;2023-03-04T09:49:56;46.67;;;43.23;;
22425;SDS011;11380;50.822;15.790;2023-03-04T09:55:14;46.10;;;42.80;;
22425;SDS011;11380;50.822;15.790;2023-03-04T10:00:45;46.13;;;42.87;;
22425;SDS011;11380;50.822;15.790;2023-03-04T10:06:06;45.03;;;41.93;;
22425;SDS011;11380;50.822;15.790;2023-03-04T10:11:23;59.60;;;50.52;;
22425;SDS011;11380;50.822;15.790;2023-03-04T10:16:59;45.53;;;42.33;;
22425;SDS011;11380;50.822;15.790;2023-03-04T10:22:22;46.05;;;42.73;;
22425;SDS011;11380;50.822;15.790;2023-03-04T10:27:32;46.28;;;42.83;;
22425;SDS011;11380;50.822;15.790;2023-03-04T10:32:43;45.00;;;41.90;;
22425;SDS011;11380;50.822;15.790;2023-03-04T10:37:52;46.03;;;42.70;;
22425;SDS011;11380;50.822;15.790;2023-03-04T10:42:59;45.97;;;42.67;;
22425;SDS011;11380;50.822;15.790;2023-03-04T10:48:16;45.93;;;42.63;;
22425;SDS011;11380;50.822;15.790;2023-03-04T10:53:29;45.38;;;42.17;;
22425;SDS011;11380;50.822;15.790;2023-03-04T10:58:38;46.13;;;42.70;;
22425;SDS011;11380;50.822;15.790;2023-03-04T11:03:46;45.07;;;41.97;;
22425;SDS011;11380;50.822;15.790;2023-03-04T11:08:54;45.47;;;42.30;;
22425;SDS011;11380;50.822;15.790;2023-03-04T11:14:08;46.17;;;42.87;;
22425;SDS011;11380;50.822;15.790;2023-03-04T11:19:18;45.67;;;42.47;;
22425;SDS011;11380;50.822;15.790;2023-03-04T11:24:31;45.83;;;42.62;;
22425;SDS011;11380;50.822;15.790;2023-03-04T11:29:50;46.17;;;42.77;;
22425;SDS011;11380;50.822;15.790;2023-03-04T11:35:22;46.28;;;42.83;;
22425;SDS011;11380;50.822;15.790;2023-03-04T11:40:40;46.17;;;42.87;;
22425;SDS011;11380;50.822;15.790;2023-03-04T11:56:49;46.43;;;43.03;;
22425;SDS011;11380;50.822;15.790;2023-03-04T12:02:22;46.50;;;43.10;;
22425;SDS011;11380;50.822;15.790;2023-03-04T12:24:33;46.30;;;42.90;;
22425;SDS011;11380;50.822;15.790;2023-03-04T12:30:02;46.93;;;43.53;;
22425;SDS011;11380;50.822;15.790;2023-03-04T12:35:37;45.83;;;42.53;;
22425;SDS011;11380;50.822;15.790;2023-03-04T12:58:03;46.70;;;43.30;;
22425;SDS011;11380;50.822;15.790;2023-03-04T13:03:20;47.60;;;44.10;;
22425;SDS011;11380;50.822;15.790;2023-03-04T13:14:05;46.07;;;42.77;;
22425;SDS011;11380;50.822;15.790;2023-03-04T13:24:55;46.43;;;43.03;;
22425;SDS011;11380;50.822;15.790;2023-03-04T13:30:07;45.80;;;42.57;;
22425;SDS011;11380;50.822;15.790;2023-03-04T13:51:34;46.10;;;42.83;;
22425;SDS011;11380;50.822;15.790;2023-03-04T13:56:52;46.90;;;43.40;;
22425;SDS011;11380;50.822;15.790;2023-03-04T14:02:13;46.73;;;43.27;;
22425;SDS011;11380;50.822;15.790;2023-03-04T14:12:39;46.13;;;42.83;;
22425;SDS011;11380;50.822;15.790;2023-03-04T14:17:56;47.20;;;43.70;;
22425;SDS011;11380;50.822;15.790;2023-03-04T14:23:24;46.17;;;42.77;;
22425;SDS011;11380;50.822;15.790;2023-03-04T14:28:42;46.60;;;43.20;;
22425;SDS011;11380;50.822;15.790;2023-03-04T14:33:57;47.03;;;43.52;;
22425;SDS011;11380;50.822;15.790;2023-03-04T14:39:11;46.33;;;42.93;;
22425;SDS011;11380;50.822;15.790;2023-03-04T14:44:24;47.85;;;44.35;;
22425;SDS011;11380;50.822;15.790;2023-03-04T14:49:42;46.17;;;42.87;;
22425;SDS011;11380;50.822;15.790;2023-03-04T14:54:58;46.23;;;42.93;;
22425;SDS011;11380;50.822;15.790;2023-03-04T15:05:28;44.93;;;41.83;;
22425;SDS011;11380;50.822;15.790;2023-03-04T15:10:38;46.43;;;43.13;;
22425;SDS011;11380;50.822;15.790;2023-03-04T15:15:46;46.93;;;43.53;;
22425;SDS011;11380;50.822;15.790;2023-03-04T15:21:00;46.97;;;43.27;;
22425;SDS011;11380;50.822;15.790;2023-03-04T15:26:10;46.97;;;43.40;;
22425;SDS011;11380;50.822;15.790;2023-03-04T15:31:20;46.77;;;43.38;;
22425;SDS011;11380;50.822;15.790;2023-03-04T15:36:30;47.00;;;43.45;;
22425;SDS011;11380;50.822;15.790;2023-03-04T15:46:43;47.70;;;44.00;;
22425;SDS011;11380;50.822;15.790;2023-03-04T15:51:51;46.60;;;43.20;;
22425;SDS011;11380;50.822;15.790;2023-03-04T15:56:58;45.90;;;42.50;;
22425;SDS011;11380;50.822;15.790;2023-03-04T16:02:13;47.07;;;43.43;;
22425;SDS011;11380;50.822;15.790;2023-03-04T16:07:28;45.67;;;42.30;;
22425;SDS011;11380;50.822;15.790;2023-03-04T16:12:36;45.73;;;42.43;;
22425;SDS011;11380;50.822;15.790;2023-03-04T16:17:43;46.87;;;43.47;;
22425;SDS011;11380;50.822;15.790;2023-03-04T16:22:57;48.93;;;44.87;;
22425;SDS011;11380;50.822;15.790;2023-03-04T16:28:05;47.57;;;44.07;;
22425;SDS011;11380;50.822;15.790;2023-03-04T16:33:16;48.97;;;44.93;;
22425;SDS011;11380;50.822;15.790;2023-03-04T16:38:23;48.13;;;44.53;;
22425;SDS011;11380;50.822;15.790;2023-03-04T16:43:38;50.60;;;46.50;;
22425;SDS011;11380;50.822;15.790;2023-03-04T16:48:46;49.07;;;45.17;;
22425;SDS011;11380;50.822;15.790;2023-03-04T16:53:54;49.53;;;45.52;;
22425;SDS011;11380;50.822;15.790;2023-03-04T16:59:03;51.30;;;47.10;;
22425;SDS011;11380;50.822;15.790;2023-03-04T17:04:14;49.67;;;45.57;;
22425;SDS011;11380;50.822;15.790;2023-03-04T17:09:21;49.65;;;45.50;;
22425;SDS011;11380;50.822;15.790;2023-03-04T17:19:34;48.23;;;44.43;;
22425;SDS011;11380;50.822;15.790;2023-03-04T17:24:41;46.08;;;42.85;;
22425;SDS011;11380;50.822;15.790;2023-03-04T17:29:48;46.53;;;43.07;;
22425;SDS011;11380;50.822;15.790;2023-03-04T17:34:56;46.23;;;43.00;;
22425;SDS011;11380;50.822;15.790;2023-03-04T17:40:06;46.60;;;43.17;;
22425;SDS011;11380;50.822;15.790;2023-03-04T17:45:19;47.57;;;43.73;;
22425;SDS011;11380;50.822;15.790;2023-03-04T17:50:26;47.40;;;43.17;;
22425;SDS011;11380;50.822;15.790;2023-03-04T17:55:33;47.40;;;43.50;;
22425;SDS011;11380;50.822;15.790;2023-03-04T18:05:46;46.53;;;42.90;;
22425;SDS011;11380;50.822;15.790;2023-03-04T18:10:53;47.43;;;43.67;;
22425;SDS011;11380;50.822;15.790;2023-03-04T18:16:00;47.87;;;43.90;;
22425;SDS011;11380;50.822;15.790;2023-03-04T18:21:07;47.20;;;43.60;;
22425;SDS011;11380;50.822;15.790;2023-03-04T18:26:16;46.70;;;42.97;;
22425;SDS011;11380;50.822;15.790;2023-03-04T18:31:27;47.25;;;43.42;;
22425;SDS011;11380;50.822;15.790;2023-03-04T18:36:39;47.17;;;43.67;;
22425;SDS011;11380;50.822;15.790;2023-03-04T18:41:46;47.87;;;44.00;;
22425;SDS011;11380;50.822;15.790;2023-03-04T18:46:54;49.00;;;44.90;;
22425;SDS011;11380;50.822;15.790;2023-03-04T18:52:03;48.70;;;44.87;;
22425;SDS011;11380;50.822;15.790;2023-03-04T18:57:11;48.97;;;45.03;;
22425;SDS011;11380;50.822;15.790;2023-03-04T19:02:27;48.78;;;44.83;;
22425;SDS011;11380;50.822;15.790;2023-03-04T19:07:43;48.33;;;44.53;;
22425;SDS011;11380;50.822;15.790;2023-03-04T19:12:51;50.43;;;46.13;;
22425;SDS011;11380;50.822;15.790;2023-03-04T19:18:00;49.17;;;44.47;;
22425;SDS011;11380;50.822;15.790;2023-03-04T19:23:10;47.10;;;43.57;;
22425;SDS011;11380;50.822;15.790;2023-03-04T19:28:18;46.77;;;43.08;;
22425;SDS011;11380;50.822;15.790;2023-03-04T19:33:28;47.85;;;43.87;;
22425;SDS011;11380;50.822;15.790;2023-03-04T19:38:36;47.23;;;43.57;;
22425;SDS011;11380;50.822;15.790;2023-03-04T19:43:43;47.13;;;43.60;;
22425;SDS011;11380;50.822;15.790;2023-03-04T19:48:51;46.90;;;43.30;;
22425;SDS011;11380;50.822;15.790;2023-03-04T19:53:58;46.40;;;42.93;;
22425;SDS011;11380;50.822;15.790;2023-03-04T19:59:06;46.23;;;42.93;;
22425;SDS011;11380;50.822;15.790;2023-03-04T20:04:14;47.63;;;43.77;;
22425;SDS011;11380;50.822;15.790;2023-03-04T20:09:26;45.38;;;42.08;;
22425;SDS011;11380;50.822;15.790;2023-03-04T20:14:34;48.57;;;43.77;;
22425;SDS011;11380;50.822;15.790;2023-03-04T20:19:42;46.43;;;43.03;;
22425;SDS011;11380;50.822;15.790;2023-03-04T20:24:51;45.17;;;41.93;;
22425;SDS011;11380;50.822;15.790;2023-03-04T20:29:59;47.17;;;43.40;;
22425;SDS011;11380;50.822;15.790;2023-03-04T20:35:07;47.20;;;43.70;;
22425;SDS011;11380;50.822;15.790;2023-03-04T20:40:17;47.13;;;43.47;;
22425;SDS011;11380;50.822;15.790;2023-03-04T20:50:30;45.73;;;42.30;;
22425;SDS011;11380;50.822;15.790;2023-03-04T20:55:37;46.40;;;42.53;;
22425;SDS011;11380;50.822;15.790;2023-03-04T21:00:45;45.67;;;42.38;;
22425;SDS011;11380;50.822;15.790;2023-03-04T21:05:55;46.60;;;43.07;;
22425;SDS011;11380;50.822;15.790;2023-03-04T21:16:20;44.98;;;41.92;;
22425;SDS011;11380;50.822;15.790;2023-03-04T21:21:35;44.77;;;41.73;;
22425;SDS011;11380;50.822;15.790;2023-03-04T21:26:44;45.80;;;42.43;;
22425;SDS011;11380;50.822;15.790;2023-03-04T21:31:59;44.63;;;41.47;;
22425;SDS011;11380;50.822;15.790;2023-03-04T21:37:21;45.73;;;42.13;;
22425;SDS011;11380;50.822;15.790;2023-03-04T21:42:30;45.63;;;42.33;;
22425;SDS011;11380;50.822;15.790;2023-03-04T21:47:40;45.80;;;42.40;;
22425;SDS011;11380;50.822;15.790;2023-03-04T21:52:48;46.20;;;42.83;;
22425;SDS011;11380;50.822;15.790;2023-03-04T21:57:58;48.53;;;44.00;;
22425;SDS011;11380;50.822;15.790;2023-03-04T22:03:05;47.03;;;43.37;;
22425;SDS011;11380;50.822;15.790;2023-03-04T22:08:14;45.90;;;42.53;;
22425;SDS011;11380;50.822;15.790;2023-03-04T22:13:24;45.60;;;42.27;;
22425;SDS011;11380;50.822;15.790;2023-03-04T22:23:39;47.50;;;43.78;;
22425;SDS011;11380;50.822;15.790;2023-03-04T22:28:47;49.10;;;44.73;;
22425;SDS011;11380;50.822;15.790;2023-03-04T22:33:59;46.70;;;43.15;;
22425;SDS011;11380;50.822;15.790;2023-03-04T22:39:19;47.03;;;43.30;;
22425;SDS011;11380;50.822;15.790;2023-03-04T22:44:27;48.30;;;44.20;;
22425;SDS011;11380;50.822;15.790;2023-03-04T22:49:34;48.53;;;44.23;;
22425;SDS011;11380;50.822;15.790;2023-03-04T22:54:43;48.77;;;44.57;;
22425;SDS011;11380;50.822;15.790;2023-03-04T22:59:51;48.37;;;44.13;;
22425;SDS011;11380;50.822;15.790;2023-03-04T23:04:58;46.97;;;43.17;;
22425;SDS011;11380;50.822;15.790;2023-03-04T23:10:10;47.30;;;43.60;;
22425;SDS011;11380;50.822;15.790;2023-03-04T23:15:21;46.57;;;42.73;;
22425;SDS011;11380;50.822;15.790;2023-03-04T23:25:35;46.97;;;43.47;;
22425;SDS011;11380;50.822;15.790;2023-03-04T23:30:43;46.17;;;42.97;;
22425;SDS011;11380;50.822;15.790;2023-03-04T23:35:50;48.65;;;44.53;;
22425;SDS011;11380;50.822;15.790;2023-03-04T23:40:57;48.07;;;44.23;;
22425;SDS011;11380;50.822;15.790;2023-03-04T23:46:04;48.43;;;44.30;;
22425;SDS011;11380;50.822;15.790;2023-03-04T23:51:19;45.73;;;42.23;;
22425;SDS011;11380;50.822;15.790;2023-03-04T23:56:29;45.92;;;42.62;;
